Time;durP1;ratioP1;P1;durP2;ratioP2;P2;SDS_P1;SDS_P2;PMS_P1;PMS_P2;Temp;Humidity;BMP_temperature;BMP_pressure;BME280_temperature;BME280_humidity;BME280_pressure;Samples;Min_cycle;Max_cycle;Signal;HPM_P1;HPM_P2
2023/11/03 00:00:15;;;;;;;;;;;;;;;9.85;83.91;98909.13;106368;1260;124648;-84
2023/11/03 00:03:05;;;;;;;;;;;;;;;9.90;83.85;98910.00;106278;1264;65271;-84
2023/11/03 00:05:32;;;;;;;;;;;;;;;9.94;83.84;98912.44;106104;1263;125081;-84
2023/11/03 00:07:58;;;;;;;;;;;;;;;9.98;83.72;98906.83;106169;1264;61594;-84
2023/11/03 00:10:25;;;;;;;;;;;;;;;10.01;83.64;98894.55;106189;1263;124923;-84
2023/11/03 00:12:52;;;;;;;;;;;;;;;10.04;83.61;98892.63;106275;1261;73328;-84
2023/11/03 00:15:20;;;;;;;;;;;;;;;10.08;83.57;98896.98;106457;1261;67712;-83
2023/11/03 00:17:49;;;;;;;;;;;;;;;10.11;83.56;98894.17;106301;1263;125996;-83
2023/11/03 00:20:15;;;;;;;;;;;;;;;10.15;83.50;98895.38;106310;1261;59312;-84
2023/11/03 00:22:42;;;;;;;;;;;;;;;10.17;83.40;98892.05;106326;1263;124976;-83
2023/11/03 00:25:13;;;;;;;;;;;;;;;10.20;83.46;98890.82;106499;1264;72792;-85
2023/11/03 00:27:40;;;;;;;;;;;;;;;10.23;83.37;98886.06;106231;1261;67545;-83
2023/11/03 00:30:08;;;;;;;;;;;;;;;10.24;83.26;98882.55;106157;1261;125026;-84
2023/11/03 00:32:35;;;;;;;;;;;;;;;10.25;83.05;98882.39;106194;1273;61271;-84
2023/11/03 00:35:01;;;;;;;;;;;;;;;10.25;83.05;98872.39;106196;1261;125184;-84
2023/11/03 00:37:28;;;;;;;;;;;;;;;10.24;82.99;98874.50;106251;1264;73434;-84
2023/11/03 00:39:55;;;;;;;;;;;;;;;10.23;82.95;98874.15;106291;1258;66028;-85
2023/11/03 00:42:21;;;;;;;;;;;;;;;10.20;82.72;98873.11;106256;1259;124798;-84
2023/11/03 00:44:48;;;;;;;;;;;;;;;10.17;82.75;98872.08;106259;1260;59688;-85
2023/11/03 00:47:14;;;;;;;;;;;;;;;10.14;82.69;98868.23;106200;1264;125447;-83
2023/11/03 00:49:41;;;;;;;;;;;;;;;10.13;82.73;98875.07;106250;1258;74831;-84
2023/11/03 00:52:08;;;;;;;;;;;;;;;10.11;82.64;98870.33;106310;1258;125041;-83
2023/11/03 00:54:35;;;;;;;;;;;;;;;10.11;82.77;98861.04;106266;1263;72514;-85
2023/11/03 00:57:02;;;;;;;;;;;;;;;10.11;82.70;98856.14;106306;1262;61242;-85
2023/11/03 00:59:28;;;;;;;;;;;;;;;10.11;82.77;98855.79;106249;1263;124809;-84
2023/11/03 01:01:55;;;;;;;;;;;;;;;10.11;82.73;98853.52;106375;1257;73744;-84
2023/11/03 01:04:22;;;;;;;;;;;;;;;10.10;82.61;98845.63;106119;1263;126055;-84
2023/11/03 01:06:49;;;;;;;;;;;;;;;10.11;82.77;98840.01;106427;1263;71496;-84
2023/11/03 01:09:17;;;;;;;;;;;;;;;10.11;82.68;98838.78;106395;1261;61310;-86
2023/11/03 01:11:43;;;;;;;;;;;;;;;10.12;82.62;98830.73;106243;1261;124781;-85
2023/11/03 01:14:10;;;;;;;;;;;;;;;10.13;82.71;98826.52;106349;1258;73287;-85
2023/11/03 01:16:38;;;;;;;;;;;;;;;10.15;82.69;98816.34;106245;1260;125883;-85
2023/11/03 01:19:05;;;;;;;;;;;;;;;10.16;82.61;98801.08;106418;1268;72710;-84
2023/11/03 01:21:32;;;;;;;;;;;;;;;10.17;82.45;98794.59;106327;1274;61272;-84
2023/11/03 01:23:58;;;;;;;;;;;;;;;10.19;82.54;98788.80;106140;1263;126732;-84
2023/11/03 01:26:25;;;;;;;;;;;;;;;10.21;82.45;98780.55;106421;1264;74730;-84
2023/11/03 01:28:52;;;;;;;;;;;;;;;10.23;82.47;98774.23;106333;1262;125366;-83
2023/11/03 01:31:22;;;;;;;;;;;;;;;10.25;82.55;98777.38;106241;1263;71884;-83
2023/11/03 01:33:49;;;;;;;;;;;;;;;10.26;82.42;98783.50;106235;1264;61190;-84
2023/11/03 01:36:15;;;;;;;;;;;;;;;10.27;82.32;98785.42;106190;1259;124582;-84
2023/11/03 01:38:43;;;;;;;;;;;;;;;10.27;82.23;98786.66;106258;1263;73349;-84
2023/11/03 01:41:11;;;;;;;;;;;;;;;10.27;82.21;98784.02;106507;1264;125789;-84
2023/11/03 01:43:39;;;;;;;;;;;;;;;10.28;82.19;98781.20;106316;1257;72554;-85
2023/11/03 01:46:06;;;;;;;;;;;;;;;10.27;82.24;98778.77;106151;1259;125153;-84
2023/11/03 01:48:32;;;;;;;;;;;;;;;10.29;82.15;98783.84;106190;1258;61274;-85
2023/11/03 01:51:02;;;;;;;;;;;;;;;10.30;82.18;98778.23;106531;1261;73310;-85
2023/11/03 01:53:29;;;;;;;;;;;;;;;10.30;82.13;98766.14;106116;1259;124809;-85
2023/11/03 01:55:56;;;;;;;;;;;;;;;10.29;82.11;98762.96;106286;1262;71426;-85
2023/11/03 01:58:23;;;;;;;;;;;;;;;10.30;82.15;98767.21;106078;1257;125224;-84
2023/11/03 02:00:50;;;;;;;;;;;;;;;10.34;82.28;98761.23;106230;1260;61396;-84
2023/11/03 02:03:17;;;;;;;;;;;;;;;10.37;82.31;98754.02;106184;1259;74739;-84
2023/11/03 02:05:46;;;;;;;;;;;;;;;10.41;82.39;98749.63;106175;1263;124788;-84
2023/11/03 02:08:12;;;;;;;;;;;;;;;10.44;82.33;98738.89;106189;1260;70149;-84
2023/11/03 02:10:42;;;;;;;;;;;;;;;10.47;82.21;98724.50;106075;1261;125901;-84
2023/11/03 02:13:10;;;;;;;;;;;;;;;10.52;82.27;98710.80;106310;1257;61282;-83
2023/11/03 02:15:40;;;;;;;;;;;;;;;10.54;82.15;98701.30;106596;1257;74967;-83
2023/11/03 02:18:10;;;;;;;;;;;;;;;10.56;82.10;98704.79;106269;1261;124791;-83
2023/11/03 02:20:37;;;;;;;;;;;;;;;10.58;82.08;98714.96;106469;1263;71818;-81
2023/11/03 02:23:04;;;;;;;;;;;;;;;10.61;81.97;98712.48;106217;1263;125946;-81
2023/11/03 02:25:30;;;;;;;;;;;;;;;10.64;81.96;98705.27;106355;1264;61313;-81
2023/11/03 02:27:57;;;;;;;;;;;;;;;10.66;81.89;98695.59;106159;1257;74173;-82
2023/11/03 02:30:24;;;;;;;;;;;;;;;10.68;81.87;98684.35;106107;1260;124782;-82
2023/11/03 02:32:50;;;;;;;;;;;;;;;10.68;81.75;98690.48;106199;1259;71887;-82
2023/11/03 02:35:17;;;;;;;;;;;;;;;10.66;81.69;98698.40;106124;1259;124877;-82
2023/11/03 02:37:43;;;;;;;;;;;;;;;10.64;81.59;98702.63;106158;1264;61360;-82
2023/11/03 02:40:10;;;;;;;;;;;;;;;10.63;81.56;98705.27;106082;1260;125215;-82
2023/11/03 02:42:37;;;;;;;;;;;;;;;10.64;81.64;98723.67;106104;1260;65967;-83
2023/11/03 02:45:04;;;;;;;;;;;;;;;10.64;81.59;98731.56;106239;1260;72890;-83
2023/11/03 02:47:31;;;;;;;;;;;;;;;10.66;81.63;98733.48;106196;1262;124852;-83
2023/11/03 02:49:57;;;;;;;;;;;;;;;10.66;81.62;98724.17;106228;1261;61282;-83
2023/11/03 02:52:24;;;;;;;;;;;;;;;10.69;81.72;98718.73;106148;1257;125560;-83
2023/11/03 02:54:50;;;;;;;;;;;;;;;10.71;81.74;98720.28;106161;1257;61255;-82
2023/11/03 02:57:17;;;;;;;;;;;;;;;10.74;81.75;98720.45;106301;1258;72722;-83
2023/11/03 02:59:44;;;;;;;;;;;;;;;10.77;81.67;98712.00;106133;1260;124720;-83
2023/11/03 03:02:10;;;;;;;;;;;;;;;10.77;81.65;98692.35;106080;1258;61157;-83
2023/11/03 03:04:37;;;;;;;;;;;;;;;10.77;81.55;98692.70;106105;1260;125254;-81
2023/11/03 03:07:04;;;;;;;;;;;;;;;10.76;81.55;98699.37;106191;1259;66329;-82
2023/11/03 03:09:30;;;;;;;;;;;;;;;10.76;81.54;98684.45;106174;1264;71397;-82
2023/11/03 03:11:57;;;;;;;;;;;;;;;10.77;81.56;98686.73;106114;1261;125219;-82
2023/11/03 03:14:24;;;;;;;;;;;;;;;10.78;81.64;98678.46;106271;1257;61255;-82
2023/11/03 03:16:51;;;;;;;;;;;;;;;10.80;81.70;98673.89;106195;1263;124576;-83
2023/11/03 03:19:18;;;;;;;;;;;;;;;10.83;81.59;98681.41;106257;1260;65142;-83
2023/11/03 03:21:44;;;;;;;;;;;;;;;10.86;81.59;98675.58;106242;1258;71061;-82
2023/11/03 03:24:11;;;;;;;;;;;;;;;10.88;81.54;98668.72;106181;1261;125112;-83
2023/11/03 03:26:37;;;;;;;;;;;;;;;10.91;81.49;98669.75;106372;1259;61342;-83
2023/11/03 03:29:04;;;;;;;;;;;;;;;10.93;81.58;98675.34;106187;1262;125039;-83
2023/11/03 03:31:30;;;;;;;;;;;;;;;10.95;81.53;98670.23;106207;1263;64749;-82
2023/11/03 03:33:57;;;;;;;;;;;;;;;10.98;81.46;98669.14;106290;1263;71387;-82
2023/11/03 03:36:24;;;;;;;;;;;;;;;11.00;81.40;98664.39;106088;1263;125272;-83
2023/11/03 03:38:50;;;;;;;;;;;;;;;11.03;81.48;98657.35;106202;1260;61684;-83
2023/11/03 03:41:17;;;;;;;;;;;;;;;11.04;81.40;98653.47;106243;1257;125030;-83
2023/11/03 03:43:43;;;;;;;;;;;;;;;11.04;81.29;98658.39;106250;1263;66375;-82
2023/11/03 03:46:10;;;;;;;;;;;;;;;11.05;81.25;98662.05;106166;1259;125096;-81
2023/11/03 03:48:36;;;;;;;;;;;;;;;11.06;81.21;98653.80;106279;1258;61252;-81
2023/11/03 03:51:03;;;;;;;;;;;;;;;11.06;81.24;98651.16;106398;1263;61268;-82
2023/11/03 03:53:30;;;;;;;;;;;;;;;11.08;81.23;98653.61;106293;1264;124934;-82
2023/11/03 03:55:57;;;;;;;;;;;;;;;11.08;81.28;98652.73;106291;1259;64283;-81
2023/11/03 03:58:24;;;;;;;;;;;;;;;11.09;81.25;98651.48;106139;1260;124935;-83
2023/11/03 04:00:51;;;;;;;;;;;;;;;11.11;81.26;98643.04;106140;1260;59440;-82
2023/11/03 04:03:19;;;;;;;;;;;;;;;11.12;81.30;98641.45;106245;1259;61283;-83
2023/11/03 04:05:46;;;;;;;;;;;;;;;11.14;81.33;98643.71;106251;1261;127067;-81
2023/11/03 04:08:12;;;;;;;;;;;;;;;11.15;81.39;98637.73;106193;1263;64906;-82
2023/11/03 04:10:39;;;;;;;;;;;;;;;11.16;81.37;98638.42;106154;1258;124967;-83
2023/11/03 04:13:05;;;;;;;;;;;;;;;11.18;81.48;98639.64;106197;1263;61290;-84
2023/11/03 04:15:32;;;;;;;;;;;;;;;11.19;81.49;98638.39;105985;1261;61327;-83
2023/11/03 04:17:59;;;;;;;;;;;;;;;11.20;81.42;98637.66;106089;1263;125113;-84
2023/11/03 04:20:25;;;;;;;;;;;;;;;11.21;81.50;98638.20;106197;1258;66328;-83
2023/11/03 04:22:52;;;;;;;;;;;;;;;11.21;81.59;98635.39;106208;1261;125358;-83
2023/11/03 04:25:18;;;;;;;;;;;;;;;11.21;81.64;98628.36;106168;1260;61356;-83
2023/11/03 04:27:45;;;;;;;;;;;;;;;11.22;81.82;98624.67;106386;1257;61339;-83
2023/11/03 04:30:12;;;;;;;;;;;;;;;11.23;81.94;98623.95;106154;1260;124792;-84
2023/11/03 04:32:38;;;;;;;;;;;;;;;11.22;82.08;98625.36;106018;1259;67304;-84
2023/11/03 04:35:07;;;;;;;;;;;;;;;11.21;82.07;98625.55;106058;1260;125109;-84
2023/11/03 04:37:34;;;;;;;;;;;;;;;11.20;82.27;98614.51;106154;1262;61260;-82
2023/11/03 04:40:00;;;;;;;;;;;;;;;11.20;82.51;98616.80;106119;1259;125987;-82
2023/11/03 04:42:28;;;;;;;;;;;;;;;11.20;82.97;98615.20;106215;1260;73166;-83
2023/11/03 04:44:54;;;;;;;;;;;;;;;11.21;83.34;98605.71;106399;1261;66299;-82
2023/11/03 04:47:21;;;;;;;;;;;;;;;11.21;83.61;98602.92;106200;1258;125005;-82
2023/11/03 04:49:48;;;;;;;;;;;;;;;11.20;83.82;98599.77;106173;1258;59284;-81
2023/11/03 04:52:14;;;;;;;;;;;;;;;11.20;84.08;98599.39;106242;1264;125508;-81
2023/11/03 04:54:41;;;;;;;;;;;;;;;11.19;84.34;98593.10;106159;1261;73396;-83
2023/11/03 04:57:08;;;;;;;;;;;;;;;11.19;84.38;98590.48;106190;1258;65094;-83
2023/11/03 04:59:35;;;;;;;;;;;;;;;11.18;84.51;98590.31;106395;1258;124731;-82
2023/11/03 05:02:02;;;;;;;;;;;;;;;11.17;84.70;98585.92;106288;1262;61286;-83
2023/11/03 05:04:29;;;;;;;;;;;;;;;11.17;84.90;98585.41;106256;1258;124970;-83
2023/11/03 05:06:56;;;;;;;;;;;;;;;11.16;85.04;98586.47;106250;1259;74780;-81
2023/11/03 05:09:22;;;;;;;;;;;;;;;11.16;85.21;98588.05;106267;1258;65157;-82
2023/11/03 05:11:49;;;;;;;;;;;;;;;11.17;85.29;98588.73;106182;1257;125426;-82
2023/11/03 05:14:16;;;;;;;;;;;;;;;11.16;85.41;98584.71;106273;1261;61380;-81
2023/11/03 05:16:42;;;;;;;;;;;;;;;11.16;85.49;98585.59;106354;1262;125773;-82
2023/11/03 05:19:09;;;;;;;;;;;;;;;11.16;85.62;98580.67;106431;1257;74717;-83
2023/11/03 05:21:36;;;;;;;;;;;;;;;11.16;85.79;98581.90;106180;1258;64005;-82
2023/11/03 05:24:02;;;;;;;;;;;;;;;11.15;85.77;98578.92;106374;1258;124977;-82
2023/11/03 05:26:29;;;;;;;;;;;;;;;11.14;85.84;98579.48;106360;1257;61279;-82
2023/11/03 05:28:57;;;;;;;;;;;;;;;11.14;85.90;98581.40;106338;1259;125672;-80
2023/11/03 05:31:23;;;;;;;;;;;;;;;11.13;85.96;98579.30;106253;1257;74652;-80
2023/11/03 05:33:50;;;;;;;;;;;;;;;11.12;86.08;98577.55;106330;1256;65841;-80
2023/11/03 05:36:16;;;;;;;;;;;;;;;11.13;86.11;98574.05;106207;1257;125313;-79
2023/11/03 05:38:43;;;;;;;;;;;;;;;11.12;86.15;98581.06;106389;1257;61290;-83
2023/11/03 05:41:11;;;;;;;;;;;;;;;11.11;86.14;98579.31;106181;1260;124773;-82
2023/11/03 05:43:38;;;;;;;;;;;;;;;11.11;86.26;98575.11;106264;1257;74827;-82
2023/11/03 05:46:04;;;;;;;;;;;;;;;11.11;86.21;98577.56;106556;1260;125475;-81
2023/11/03 05:48:31;;;;;;;;;;;;;;;11.10;86.25;98583.38;106739;1257;72704;-82
2023/11/03 05:50:58;;;;;;;;;;;;;;;11.09;86.27;98584.09;106716;1257;59623;-82
2023/11/03 05:53:24;;;;;;;;;;;;;;;11.09;86.27;98582.16;106571;1258;125599;-84
2023/11/03 05:55:51;;;;;;;;;;;;;;;11.09;86.34;98585.30;106574;1257;74709;-84
2023/11/03 05:58:17;;;;;;;;;;;;;;;11.08;86.39;98585.31;106417;1261;125766;-82
2023/11/03 06:00:45;;;;;;;;;;;;;;;11.08;86.39;98586.02;106291;1260;72637;-83
2023/11/03 06:03:12;;;;;;;;;;;;;;;11.08;86.43;98577.07;106242;1259;61058;-82
2023/11/03 06:05:39;;;;;;;;;;;;;;;11.08;86.46;98576.54;106143;1259;125497;-82
2023/11/03 06:08:05;;;;;;;;;;;;;;;11.09;86.53;98578.64;106217;1258;75678;-74
2023/11/03 06:10:32;;;;;;;;;;;;;;;11.08;86.59;98579.70;105549;1262;125505;-74
2023/11/03 06:12:58;;;;;;;;;;;;;;;11.09;86.62;98582.67;105607;1258;61307;-74
2023/11/03 06:15:25;;;;;;;;;;;;;;;11.11;86.64;98586.17;105782;1263;61383;-82
2023/11/03 06:17:52;;;;;;;;;;;;;;;11.13;86.69;98585.45;106089;1263;124989;-82
2023/11/03 06:20:19;;;;;;;;;;;;;;;11.14;86.74;98581.92;106240;1257;75030;-82
2023/11/03 06:22:46;;;;;;;;;;;;;;;11.14;86.68;98579.65;106050;1259;126119;-81
2023/11/03 06:25:13;;;;;;;;;;;;;;;11.14;86.77;98574.55;106283;1258;71240;-85
2023/11/03 06:27:39;;;;;;;;;;;;;;;11.15;86.80;98569.27;106274;1258;61284;-85
2023/11/03 06:30:06;;;;;;;;;;;;;;;11.15;86.82;98572.25;106134;1258;124973;-85
2023/11/03 06:32:33;;;;;;;;;;;;;;;11.15;86.81;98578.05;106329;1257;75432;-83
2023/11/03 06:34:59;;;;;;;;;;;;;;;11.16;86.78;98578.73;106132;1258;124801;-82
2023/11/03 06:37:26;;;;;;;;;;;;;;;11.17;87.02;98575.40;106397;1262;70738;-82
2023/11/03 06:39:54;;;;;;;;;;;;;;;11.18;86.87;98578.02;106319;1258;61267;-82
2023/11/03 06:42:20;;;;;;;;;;;;;;;11.19;86.98;98578.89;106443;1259;124715;-82
2023/11/03 06:44:54;;;;;;;;;;;;;;;11.19;87.05;98579.23;106754;1258;72485;-82
2023/11/03 06:47:21;;;;;;;;;;;;;;;11.21;87.18;98573.42;106511;1257;124831;-82
2023/11/03 06:49:48;;;;;;;;;;;;;;;11.24;87.22;98574.77;106645;1257;72737;-82
2023/11/03 06:52:14;;;;;;;;;;;;;;;11.28;87.27;98576.30;106116;1263;124987;-82
2023/11/03 06:54:43;;;;;;;;;;;;;;;11.31;87.25;98574.34;106521;1258;61197;-82
2023/11/03 06:57:09;;;;;;;;;;;;;;;11.34;87.27;98574.99;106548;1258;73373;-82
2023/11/03 06:59:36;;;;;;;;;;;;;;;11.36;87.16;98574.98;106265;1258;125131;-82
2023/11/03 07:02:02;;;;;;;;;;;;;;;11.37;87.26;98575.84;106201;1257;71322;-81
2023/11/03 07:04:30;;;;;;;;;;;;;;;11.38;87.21;98574.77;106180;1258;124945;-81
2023/11/03 07:06:56;;;;;;;;;;;;;;;11.39;87.29;98572.99;106254;1263;61243;-81
2023/11/03 07:09:23;;;;;;;;;;;;;;;11.41;87.31;98571.58;106241;1258;75027;-81
2023/11/03 07:11:50;;;;;;;;;;;;;;;11.42;87.33;98564.35;106034;1258;124819;-82
2023/11/03 07:14:16;;;;;;;;;;;;;;;11.44;87.31;98562.94;106371;1257;72714;-81
2023/11/03 07:16:46;;;;;;;;;;;;;;;11.44;87.36;98562.74;106182;1258;125074;-82
2023/11/03 07:19:13;;;;;;;;;;;;;;;11.43;87.39;98559.25;106228;1257;59658;-82
2023/11/03 07:21:40;;;;;;;;;;;;;;;11.43;87.39;98553.80;106364;1262;72129;-82
2023/11/03 07:24:08;;;;;;;;;;;;;;;11.45;87.51;98563.45;106347;1258;124765;-81
2023/11/03 07:26:35;;;;;;;;;;;;;;;11.46;87.56;98561.51;106221;1258;73317;-82
2023/11/03 07:29:02;;;;;;;;;;;;;;;11.49;87.62;98561.81;106177;1257;125061;-81
2023/11/03 07:31:29;;;;;;;;;;;;;;;11.51;87.53;98564.41;106372;1262;61276;-81
2023/11/03 07:33:58;;;;;;;;;;;;;;;11.52;87.64;98567.04;106377;1258;73492;-81
2023/11/03 07:36:25;;;;;;;;;;;;;;;11.52;87.58;98574.76;106255;1262;124661;-81
2023/11/03 07:38:51;;;;;;;;;;;;;;;11.52;87.53;98575.64;106210;1257;71398;-82
2023/11/03 07:41:18;;;;;;;;;;;;;;;11.54;87.71;98570.88;106182;1257;125105;-82
2023/11/03 07:43:45;;;;;;;;;;;;;;;11.55;87.76;98578.92;106331;1258;62076;-82
2023/11/03 07:46:13;;;;;;;;;;;;;;;11.58;87.79;98583.29;106121;1258;125128;-82
2023/11/03 07:48:42;;;;;;;;;;;;;;;11.61;87.73;98592.55;106176;1260;66280;-82
2023/11/03 07:51:09;;;;;;;;;;;;;;;11.63;87.83;98594.98;106293;1257;72716;-81
2023/11/03 07:53:35;;;;;;;;;;;;;;;11.63;87.61;98595.16;106134;1262;124783;-82
2023/11/03 07:56:02;;;;;;;;;;;;;;;11.62;87.73;98587.80;106259;1259;61353;-82
2023/11/03 07:58:29;;;;;;;;;;;;;;;11.62;87.70;98582.01;106129;1258;125031;-82
2023/11/03 08:00:58;;;;;;;;;;;;;;;11.63;87.71;98577.06;106301;1257;66525;-82
2023/11/03 08:03:28;;;;;;;;;;;;;;;11.65;87.81;98575.45;106186;1257;72960;-81
2023/11/03 08:05:56;;;;;;;;;;;;;;;11.67;87.93;98571.39;106335;1259;125514;-81
2023/11/03 08:08:23;;;;;;;;;;;;;;;11.72;87.92;98574.66;106251;1258;61286;-81
2023/11/03 08:10:50;;;;;;;;;;;;;;;11.75;87.84;98578.13;106194;1261;124882;-81
2023/11/03 08:13:16;;;;;;;;;;;;;;;11.78;87.80;98577.20;106353;1259;65344;-82
2023/11/03 08:15:43;;;;;;;;;;;;;;;11.80;87.78;98574.37;106321;1261;71494;-81
2023/11/03 08:18:11;;;;;;;;;;;;;;;11.82;87.70;98582.95;106194;1258;125054;-82
2023/11/03 08:20:38;;;;;;;;;;;;;;;11.81;87.56;98586.48;106277;1260;61124;-81
2023/11/03 08:23:05;;;;;;;;;;;;;;;11.80;87.56;98587.02;106233;1257;125089;-81
2023/11/03 08:25:32;;;;;;;;;;;;;;;11.80;87.61;98584.03;106419;1257;66302;-81
2023/11/03 08:27:59;;;;;;;;;;;;;;;11.77;87.43;98587.41;106138;1258;74826;-81
2023/11/03 08:30:25;;;;;;;;;;;;;;;11.74;87.42;98601.68;106186;1258;59350;-81
2023/11/03 08:32:53;;;;;;;;;;;;;;;11.74;87.52;98601.87;106229;1258;61246;-85
2023/11/03 08:35:22;;;;;;;;;;;;;;;11.72;87.38;98592.05;106134;1259;124950;-85
2023/11/03 08:37:52;;;;;;;;;;;;;;;11.71;87.54;98586.43;106252;1258;66104;-85
2023/11/03 08:40:20;;;;;;;;;;;;;;;11.72;87.64;98588.54;106186;1257;126058;-82
2023/11/03 08:42:46;;;;;;;;;;;;;;;11.70;87.58;98589.78;106297;1258;61298;-82
2023/11/03 08:45:14;;;;;;;;;;;;;;;11.73;87.54;98602.77;106331;1262;61258;-82
2023/11/03 08:47:43;;;;;;;;;;;;;;;11.72;87.65;98609.09;106490;1262;125568;-81
2023/11/03 08:50:15;;;;;;;;;;;;;;;11.72;87.57;98608.05;106334;1257;66959;-81
2023/11/03 08:52:43;;;;;;;;;;;;;;;11.69;87.69;98608.77;106119;1263;125153;-81
2023/11/03 08:55:10;;;;;;;;;;;;;;;11.67;87.53;98607.76;106206;1258;61376;-81
2023/11/03 08:57:37;;;;;;;;;;;;;;;11.68;87.77;98605.64;106237;1261;61278;-81
2023/11/03 09:00:08;;;;;;;;;;;;;;;11.69;87.82;98606.67;106373;1258;125442;-81
2023/11/03 09:02:36;;;;;;;;;;;;;;;11.70;87.67;98610.70;106301;1261;66304;-81
2023/11/03 09:05:04;;;;;;;;;;;;;;;11.70;87.77;98611.06;106281;1263;125626;-82
2023/11/03 09:07:31;;;;;;;;;;;;;;;11.70;87.80;98614.23;106254;1258;61364;-81
2023/11/03 09:09:58;;;;;;;;;;;;;;;11.69;87.76;98614.23;106263;1257;61273;-81
2023/11/03 09:12:24;;;;;;;;;;;;;;;11.68;87.87;98615.30;106247;1258;124881;-82
2023/11/03 09:14:51;;;;;;;;;;;;;;;11.69;87.85;98620.20;106314;1258;64969;-82
2023/11/03 09:17:19;;;;;;;;;;;;;;;11.72;87.94;98616.65;106196;1258;124853;-82
2023/11/03 09:19:46;;;;;;;;;;;;;;;11.74;87.89;98616.98;106463;1257;61272;-83
2023/11/03 09:22:12;;;;;;;;;;;;;;;11.72;87.82;98619.45;106020;1258;177114;-82
2023/11/03 09:24:39;;;;;;;;;;;;;;;11.72;87.78;98623.14;106087;1258;74649;-82
2023/11/03 09:27:06;;;;;;;;;;;;;;;11.72;87.74;98621.39;106393;1261;64937;-85
2023/11/03 09:29:33;;;;;;;;;;;;;;;11.70;87.68;98621.23;106205;1257;124940;-84
2023/11/03 09:31:59;;;;;;;;;;;;;;;11.71;87.79;98614.21;106301;1257;61289;-84
2023/11/03 09:34:27;;;;;;;;;;;;;;;11.71;87.70;98610.52;106146;1259;124882;-84
2023/11/03 09:36:54;;;;;;;;;;;;;;;11.72;87.78;98610.16;106186;1263;74723;-83
2023/11/03 09:39:21;;;;;;;;;;;;;;;11.72;87.76;98610.67;106272;1261;64666;-82
2023/11/03 09:41:52;;;;;;;;;;;;;;;11.74;87.81;98610.30;106051;1258;124144;-85
2023/11/03 09:44:19;;;;;;;;;;;;;;;11.76;87.71;98620.98;106230;1263;61344;-84
2023/11/03 09:46:48;;;;;;;;;;;;;;;11.76;87.66;98627.67;106043;1260;125025;-87
2023/11/03 09:49:14;;;;;;;;;;;;;;;11.74;87.64;98627.52;106140;1264;73378;-86
2023/11/03 09:51:41;;;;;;;;;;;;;;;11.73;87.60;98627.88;106113;1258;65269;-88
2023/11/03 09:54:08;;;;;;;;;;;;;;;11.69;87.51;98629.51;106114;1258;124992;-86
2023/11/03 09:56:36;;;;;;;;;;;;;;;11.66;87.47;98625.16;106036;1259;59628;-86
2023/11/03 09:59:03;;;;;;;;;;;;;;;11.66;87.50;98622.17;106338;1257;124933;-86
2023/11/03 10:01:29;;;;;;;;;;;;;;;11.65;87.50;98623.06;106217;1258;73378;-85
2023/11/03 10:03:57;;;;;;;;;;;;;;;11.64;87.52;98625.89;106144;1265;66147;-85
2023/11/03 10:06:25;;;;;;;;;;;;;;;11.64;87.44;98620.44;106220;1257;125406;-86
2023/11/03 10:08:55;;;;;;;;;;;;;;;11.64;87.49;98618.86;106277;1258;61356;-84
2023/11/03 10:11:22;;;;;;;;;;;;;;;11.64;87.53;98618.86;106055;1258;125201;-85
2023/11/03 10:13:49;;;;;;;;;;;;;;;11.63;87.54;98616.60;106244;1258;73380;-84
2023/11/03 10:16:16;;;;;;;;;;;;;;;11.63;87.46;98610.96;106172;1260;125654;-85
2023/11/03 10:18:42;;;;;;;;;;;;;;;11.63;87.52;98609.21;106222;1263;71118;-85
2023/11/03 10:21:09;;;;;;;;;;;;;;;11.66;87.65;98607.94;106449;1261;61314;-85
2023/11/03 10:23:37;;;;;;;;;;;;;;;11.67;87.68;98603.18;106375;1258;124921;-88
2023/11/03 10:26:04;;;;;;;;;;;;;;;11.71;87.56;98595.76;106220;1264;72925;-87
2023/11/03 10:28:32;;;;;;;;;;;;;;;11.72;87.48;98591.34;106071;1258;125472;-87
2023/11/03 10:31:04;;;;;;;;;;;;;;;11.74;87.54;98594.66;106105;1259;72705;-87
2023/11/03 10:33:30;;;;;;;;;;;;;;;11.76;87.54;98594.45;106153;1262;61363;-87
2023/11/03 10:35:57;;;;;;;;;;;;;;;11.80;87.54;98599.85;106018;1259;125517;-87
2023/11/03 10:38:23;;;;;;;;;;;;;;;11.81;87.49;98596.48;106172;1258;73725;-87
2023/11/03 10:40:54;;;;;;;;;;;;;;;11.80;87.27;98596.15;106052;1263;124883;-87
2023/11/03 10:43:24;;;;;;;;;;;;;;;11.80;87.40;98598.78;106290;1258;72708;-87
2023/11/03 10:46:29;;;;;;;;;;;;;;;11.80;87.37;98599.14;106207;1258;61364;-87
2023/11/03 10:48:59;;;;;;;;;;;;;;;11.80;87.41;98604.05;105789;1266;61357;-86
2023/11/03 10:51:47;;;;;;;;;;;;;;;11.81;87.47;98604.75;105686;1267;74684;-87
2023/11/03 10:54:20;;;;;;;;;;;;;;;11.80;87.45;98599.66;105658;1270;124440;-87
2023/11/03 10:56:47;;;;;;;;;;;;;;;11.81;87.50;98590.16;105834;1267;72971;-83
2023/11/03 10:59:14;;;;;;;;;;;;;;;11.83;87.47;98594.17;105560;1270;125028;-83
2023/11/03 11:01:43;;;;;;;;;;;;;;;11.82;87.44;98599.99;105852;1267;61199;-84
2023/11/03 11:04:12;;;;;;;;;;;;;;;11.81;87.47;98600.17;105694;1267;125071;-84
2023/11/03 11:06:40;;;;;;;;;;;;;;;11.81;87.35;98605.98;105781;1267;65179;-85
2023/11/03 11:09:08;;;;;;;;;;;;;;;11.77;87.33;98604.10;105773;1270;72766;-84
2023/11/03 11:11:36;;;;;;;;;;;;;;;11.72;87.37;98604.71;105692;1267;125245;-82
2023/11/03 11:14:22;;;;;;;;;;;;;;;11.71;87.52;98598.58;105772;1267;61262;-85
2023/11/03 11:16:55;;;;;;;;;;;;;;;11.69;87.59;98601.05;105711;1267;125190;-86
2023/11/03 11:19:32;;;;;;;;;;;;;;;11.70;87.70;98605.08;105762;1267;66270;-86
2023/11/03 11:21:59;;;;;;;;;;;;;;;11.73;87.76;98601.70;105832;1267;71405;-85
2023/11/03 11:24:29;;;;;;;;;;;;;;;11.73;87.76;98602.40;106140;1258;125764;-86
2023/11/03 11:27:10;;;;;;;;;;;;;;;11.72;87.78;98593.63;106508;1258;61383;-86
2023/11/03 11:29:37;;;;;;;;;;;;;;;11.72;87.78;98595.74;106256;1257;125137;-87
2023/11/03 11:32:04;;;;;;;;;;;;;;;11.72;87.87;98594.52;106434;1259;67463;-87
2023/11/03 11:34:31;;;;;;;;;;;;;;;11.72;87.82;98596.09;106238;1260;125334;-86
2023/11/03 11:37:16;;;;;;;;;;;;;;;11.72;87.88;98584.68;106243;1258;61233;-86
2023/11/03 11:39:43;;;;;;;;;;;;;;;11.74;87.94;98578.50;106425;1258;60263;-86
2023/11/03 11:42:13;;;;;;;;;;;;;;;11.75;88.02;98579.71;106259;1258;124960;-86
2023/11/03 11:44:40;;;;;;;;;;;;;;;11.75;88.03;98581.47;106311;1262;65092;-85
2023/11/03 11:47:07;;;;;;;;;;;;;;;11.75;88.08;98579.52;106176;1257;124788;-85
2023/11/03 11:49:34;;;;;;;;;;;;;;;11.76;88.12;98572.31;106178;1258;61318;-87
2023/11/03 11:52:01;;;;;;;;;;;;;;;11.76;88.18;98574.59;106366;1258;61230;-87
2023/11/03 11:54:28;;;;;;;;;;;;;;;11.78;88.19;98576.32;106080;1262;124669;-87
2023/11/03 11:56:54;;;;;;;;;;;;;;;11.78;88.21;98576.33;106213;1263;65046;-87
2023/11/03 11:59:21;;;;;;;;;;;;;;;11.76;88.17;98577.23;106102;1262;125060;-86
2023/11/03 12:01:48;;;;;;;;;;;;;;;11.74;88.23;98578.83;106194;1258;61195;-87
2023/11/03 12:04:15;;;;;;;;;;;;;;;11.73;88.25;98579.56;106192;1257;124046;-86
2023/11/03 12:06:42;;;;;;;;;;;;;;;11.71;88.22;98580.80;106257;1263;75914;-86
2023/11/03 12:09:09;;;;;;;;;;;;;;;11.72;88.37;98580.27;106313;1258;64737;-87
2023/11/03 12:11:37;;;;;;;;;;;;;;;11.73;88.51;98578.16;106151;1257;124998;-87
2023/11/03 12:14:04;;;;;;;;;;;;;;;11.74;88.45;98573.59;106386;1262;61285;-86
2023/11/03 12:16:30;;;;;;;;;;;;;;;11.74;88.46;98567.95;106136;1258;125385;-85
2023/11/03 12:18:57;;;;;;;;;;;;;;;11.75;88.41;98567.23;106094;1260;74624;-86
2023/11/03 12:21:24;;;;;;;;;;;;;;;11.74;88.34;98568.48;106183;1258;64966;-87
2023/11/03 12:23:51;;;;;;;;;;;;;;;11.73;88.39;98563.59;106105;1258;125156;-86
2023/11/03 12:26:18;;;;;;;;;;;;;;;11.72;88.37;98562.36;106374;1258;61326;-87
2023/11/03 12:28:44;;;;;;;;;;;;;;;11.69;88.26;98557.31;106241;1264;125061;-86
2023/11/03 12:31:11;;;;;;;;;;;;;;;11.66;88.22;98556.46;106323;1259;74688;-87
2023/11/03 12:33:38;;;;;;;;;;;;;;;11.65;88.30;98557.35;106256;1263;65601;-87